Time;durP1;ratioP1;P1;durP2;ratioP2;P2;SDS_P1;SDS_P2;PMS_P1;PMS_P2;Temp;Humidity;BMP_temperature;BMP_pressure;BME280_temperature;BME280_humidity;BME280_pressure;Samples;Min_cycle;Max_cycle;Signal;HPM_P1;HPM_P2
2024/01/14 00:04:06;;;;;;;8.02;4.72;;;;;;;17.22;49.86;101347.66;10455212;28;20025;-50
2024/01/14 00:09:06;;;;;;;6.40;4.70;;;;;;;17.23;49.81;101334.00;10453918;28;20045;-48
2024/01/14 00:14:06;;;;;;;5.20;4.53;;;;;;;17.23;51.22;101330.50;10454672;28;20929;-47
2024/01/14 00:19:07;;;;;;;5.70;4.55;;;;;;;17.22;50.83;101335.06;10453976;28;20029;-48
2024/01/14 00:24:07;;;;;;;4.65;4.13;;;;;;;17.24;49.93;101329.44;10454361;28;20035;-49
2024/01/14 00:29:07;;;;;;;5.72;4.70;;;;;;;17.22;50.75;101326.22;10453712;28;20097;-47
2024/01/14 00:34:08;;;;;;;5.53;4.30;;;;;;;17.23;50.00;101317.13;10458379;28;20052;-50
2024/01/14 00:39:08;;;;;;;4.80;4.17;;;;;;;17.23;49.84;101306.41;10453517;28;20306;-49
2024/01/14 00:44:08;;;;;;;5.70;4.57;;;;;;;17.23;49.49;101296.47;10453648;28;20340;-49
2024/01/14 00:49:09;;;;;;;4.63;3.92;;;;;;;17.24;50.01;101290.03;10453010;28;20313;-48
2024/01/14 00:54:09;;;;;;;4.72;3.70;;;;;;;17.24;49.75;101287.34;10452114;28;20033;-47
2024/01/14 00:59:11;;;;;;;3.93;3.50;;;;;;;17.25;50.73;101286.28;10452695;28;20029;-51
2024/01/14 01:04:11;;;;;;;4.35;3.38;;;;;;;17.25;49.98;101274.75;10452739;28;20295;-46
2024/01/14 01:09:12;;;;;;;5.80;4.40;;;;;;;17.25;49.68;101277.44;10445952;28;20045;-46
2024/01/14 01:14:14;;;;;;;5.47;3.95;;;;;;;17.25;50.97;101282.81;10452490;28;20032;-48
2024/01/14 01:19:14;;;;;;;4.78;3.90;;;;;;;17.28;50.37;101254.66;10451913;28;20056;-47
2024/01/14 01:24:14;;;;;;;4.93;4.43;;;;;;;17.29;50.40;101250.91;10452075;28;20104;-49
2024/01/14 01:29:15;;;;;;;5.22;3.97;;;;;;;17.32;50.76;101237.75;10451363;28;21121;-47
2024/01/14 01:34:15;;;;;;;4.80;4.07;;;;;;;17.27;50.74;101237.75;10456364;28;20036;-46
2024/01/14 01:39:15;;;;;;;4.50;3.67;;;;;;;17.31;49.56;101238.84;10451385;28;20286;-48
2024/01/14 01:44:16;;;;;;;5.67;4.37;;;;;;;17.29;50.07;101226.78;10451275;28;20289;-50
2024/01/14 01:49:16;;;;;;;5.13;3.87;;;;;;;17.30;49.64;101221.16;10450803;28;20291;-48
2024/01/14 01:54:19;;;;;;;4.43;3.42;;;;;;;17.29;50.18;101222.22;10451050;28;20282;-46
2024/01/14 01:59:20;;;;;;;5.72;4.20;;;;;;;17.31;49.54;101221.97;10450295;28;20017;-49
2024/01/14 02:04:20;;;;;;;4.78;3.75;;;;;;;17.32;50.42;101219.00;10449477;28;20028;-48
2024/01/14 02:09:21;;;;;;;4.97;3.90;;;;;;;17.31;49.47;101219.28;10442561;28;20087;-48
2024/01/14 02:14:21;;;;;;;4.28;3.22;;;;;;;17.31;50.04;101211.25;10450631;28;20044;-48
2024/01/14 02:19:22;;;;;;;4.97;3.80;;;;;;;17.32;49.71;101186.84;10449326;28;20021;-47
2024/01/14 02:24:28;;;;;;;4.32;3.17;;;;;;;17.31;49.17;101197.84;10450228;28;20279;-48
2024/01/14 02:29:30;;;;;;;6.72;4.47;;;;;;;17.31;50.52;101195.97;10449093;28;20064;-47
2024/01/14 02:34:32;;;;;;;4.72;3.58;;;;;;;17.29;49.92;101198.13;10453935;28;20039;-50
2024/01/14 02:39:32;;;;;;;4.55;3.58;;;;;;;17.32;49.25;101186.03;10448087;28;20025;-46
2024/01/14 02:44:33;;;;;;;5.70;4.15;;;;;;;17.32;50.44;101184.16;10449859;28;20059;-47
2024/01/14 02:49:33;;;;;;;5.75;3.97;;;;;;;17.35;49.43;101174.75;10449196;28;20044;-48
2024/01/14 02:54:33;;;;;;;4.73;3.83;;;;;;;17.32;49.38;101164.59;10449693;28;20060;-50
2024/01/14 02:59:35;;;;;;;5.63;4.07;;;;;;;17.24;50.57;101174.00;10449081;28;20355;-47
2024/01/14 03:04:35;;;;;;;5.75;3.53;;;;;;;17.25;49.38;101168.38;10449289;28;20271;-47
2024/01/14 03:09:35;;;;;;;5.53;4.00;;;;;;;17.23;50.24;101154.44;10448207;28;20041;-47
2024/01/14 03:14:36;;;;;;;4.83;4.00;;;;;;;17.23;49.19;101143.72;10449295;28;20025;-49
2024/01/14 03:19:36;;;;;;;6.37;3.57;;;;;;;17.23;50.27;101150.97;10448831;28;20275;-46
2024/01/14 03:24:36;;;;;;;4.93;4.03;;;;;;;17.24;50.05;101139.16;10449133;28;20279;-49
2024/01/14 03:29:37;;;;;;;6.23;4.53;;;;;;;17.23;49.05;101132.19;10453371;28;20294;-47
2024/01/14 03:34:37;;;;;;;5.13;3.83;;;;;;;17.27;49.40;101140.47;10458658;28;20788;-47
2024/01/14 03:39:37;;;;;;;4.47;3.63;;;;;;;17.23;49.98;101137.56;10455748;28;20267;-51
2024/01/14 03:44:37;;;;;;;4.97;3.87;;;;;;;17.22;49.54;101138.63;10456119;28;20816;-50
2024/01/14 03:49:38;;;;;;;5.80;3.80;;;;;;;17.24;49.03;101125.75;10455195;28;20374;-46
2024/01/14 03:54:38;;;;;;;4.40;3.70;;;;;;;17.20;50.34;101114.81;10455534;28;20315;-49
2024/01/14 03:59:39;;;;;;;4.43;3.60;;;;;;;17.21;49.15;101108.34;10455063;28;20017;-48
2024/01/14 04:04:39;;;;;;;4.50;3.60;;;;;;;17.21;49.51;101110.25;10455328;28;20279;-46
2024/01/14 04:09:39;;;;;;;5.03;4.13;;;;;;;17.22;49.92;101106.47;10454050;28;20291;-49
2024/01/14 04:14:40;;;;;;;5.93;3.90;;;;;;;17.23;48.89;101097.38;10454759;28;20677;-47
2024/01/14 04:19:40;;;;;;;5.63;4.50;;;;;;;17.22;49.52;101098.44;10452758;28;20267;-48
2024/01/14 04:24:41;;;;;;;5.73;4.53;;;;;;;17.22;49.38;101087.72;10442223;28;20284;-49
2024/01/14 04:29:41;;;;;;;4.30;3.67;;;;;;;17.20;49.62;101093.38;10449597;28;20358;-49
2024/01/14 04:34:41;;;;;;;5.53;3.67;;;;;;;17.21;48.99;101076.22;10456418;28;20108;-49
2024/01/14 04:39:42;;;;;;;5.70;4.17;;;;;;;17.20;49.93;101074.59;10453536;28;20350;-48
2024/01/14 04:44:42;;;;;;;4.50;3.60;;;;;;;17.23;49.42;101070.56;10453456;28;20275;-48
2024/01/14 04:49:42;;;;;;;6.80;4.27;;;;;;;17.23;49.91;101057.16;10453603;28;20295;-48
2024/01/14 04:54:43;;;;;;;5.10;3.83;;;;;;;17.23;50.43;101055.28;10452919;28;20279;-48
2024/01/14 04:59:43;;;;;;;6.27;4.03;;;;;;;17.24;49.16;101061.44;10452988;28;20260;-49
2024/01/14 05:04:44;;;;;;;5.78;4.00;;;;;;;17.21;49.15;101062.81;10452172;28;20275;-48
2024/01/14 05:09:44;;;;;;;5.60;3.90;;;;;;;17.21;50.21;101052.09;10452375;28;20041;-51
2024/01/14 05:14:44;;;;;;;5.90;4.00;;;;;;;17.21;49.26;101044.06;10451999;28;20035;-47
2024/01/14 05:19:45;;;;;;;5.70;4.38;;;;;;;17.21;49.92;101044.06;10452139;28;20285;-47
2024/01/14 05:24:45;;;;;;;5.45;3.60;;;;;;;17.21;49.94;101037.88;10451866;28;20028;-48
2024/01/14 05:29:46;;;;;;;5.90;4.20;;;;;;;17.23;49.17;101044.56;10454856;28;20104;-49
2024/01/14 05:34:46;;;;;;;4.93;3.60;;;;;;;17.21;49.80;101040.56;10451954;28;20025;-47
2024/01/14 05:39:46;;;;;;;5.68;3.78;;;;;;;17.23;50.01;101027.69;10451356;28;20275;-48
2024/01/14 05:44:47;;;;;;;4.53;3.47;;;;;;;17.21;49.34;101022.59;10450991;28;20091;-47
2024/01/14 05:49:48;;;;;;;4.70;3.67;;;;;;;17.23;48.41;101012.41;10451264;28;20356;-47
2024/01/14 05:54:48;;;;;;;5.00;3.92;;;;;;;17.21;49.41;101014.56;10443019;28;20028;-46
2024/01/14 05:59:48;;;;;;;5.07;3.97;;;;;;;17.22;50.06;101012.69;10437278;28;20025;-46
2024/01/14 06:04:49;;;;;;;5.80;4.25;;;;;;;17.22;49.18;101005.44;10448231;28;20267;-47
2024/01/14 06:09:49;;;;;;;4.87;3.63;;;;;;;17.21;50.17;101013.78;10445208;28;20045;-49
2024/01/14 06:14:49;;;;;;;5.40;4.05;;;;;;;17.27;49.40;101009.16;10449529;28;20275;-47
2024/01/14 06:19:51;;;;;;;5.43;3.85;;;;;;;17.30;49.54;100997.91;10450336;28;20052;-49
2024/01/14 06:24:51;;;;;;;6.07;4.10;;;;;;;17.32;49.69;100987.69;10448980;28;20032;-47
2024/01/14 06:29:51;;;;;;;4.97;4.07;;;;;;;17.33;49.40;100981.25;10453600;28;20287;-49
2024/01/14 06:34:52;;;;;;;7.07;4.30;;;;;;;17.34;48.42;100969.47;10449175;28;20283;-48
2024/01/14 06:39:52;;;;;;;8.90;5.20;;;;;;;17.42;50.23;100968.88;10446730;28;20271;-49
2024/01/14 06:44:52;;;;;;;8.95;4.82;;;;;;;17.45;49.53;100960.25;10446307;28;20280;-46
2024/01/14 06:49:54;;;;;;;7.53;4.63;;;;;;;17.49;49.80;100954.03;10442940;28;20095;-47
2024/01/14 06:54:54;;;;;;;8.32;5.40;;;;;;;17.50;50.31;100944.09;10442211;28;20286;-47
2024/01/14 06:59:55;;;;;;;10.43;5.73;;;;;;;17.56;51.15;100945.66;10450946;28;20059;-52
2024/01/14 07:04:55;;;;;;;11.13;5.07;;;;;;;17.51;52.23;100951.06;10451061;28;20283;-48
2024/01/14 07:09:56;;;;;;;7.68;4.10;;;;;;;17.52;51.91;100949.97;10453053;28;20599;-46
2024/01/14 07:14:56;;;;;;;12.60;5.37;;;;;;;17.41;52.42;100943.94;10413621;28;20348;-47
2024/01/14 07:19:56;;;;;;;12.55;6.47;;;;;;;17.37;51.21;100940.19;10450288;28;20309;-48
2024/01/14 07:24:57;;;;;;;16.85;6.80;;;;;;;17.40;51.61;100950.34;10445205;28;20380;-48
2024/01/14 07:29:57;;;;;;;7.95;5.18;;;;;;;17.38;52.54;100943.69;10451188;28;20029;-48
2024/01/14 07:34:58;;;;;;;8.10;5.47;;;;;;;17.33;51.68;100946.41;10438709;28;20044;-49
2024/01/14 07:39:58;;;;;;;7.65;5.60;;;;;;;17.35;51.38;100949.63;10446764;28;20311;-50
2024/01/14 07:44:59;;;;;;;11.55;5.70;;;;;;;17.35;52.91;100950.41;10449061;28;20056;-48
2024/01/14 07:49:59;;;;;;;8.17;5.13;;;;;;;17.30;52.70;100942.44;10439633;28;20028;-51
2024/01/14 07:55:00;;;;;;;8.77;5.07;;;;;;;17.33;51.65;100943.75;10447751;28;20283;-47
2024/01/14 08:00:00;;;;;;;9.73;4.97;;;;;;;17.28;52.13;100941.88;10453628;28;20263;-49
2024/01/14 08:05:00;;;;;;;13.40;5.60;;;;;;;17.24;52.29;100944.34;10450275;28;20048;-50
2024/01/14 08:10:01;;;;;;;13.87;5.50;;;;;;;17.30;52.70;100936.28;10439544;28;20322;-49
2024/01/14 08:15:02;;;;;;;12.13;5.85;;;;;;;17.29;52.79;100946.19;10449557;28;20372;-49
2024/01/14 08:20:04;;;;;;;14.35;5.22;;;;;;;17.17;53.66;100943.06;10452502;28;20062;-52
2024/01/14 08:25:05;;;;;;;22.33;6.38;;;;;;;17.09;52.33;100941.78;10452893;28;20017;-49
2024/01/14 08:30:06;;;;;;;18.73;7.47;;;;;;;17.17;52.75;100943.06;10434315;28;20037;-50
2024/01/14 08:35:07;;;;;;;11.45;5.63;;;;;;;17.16;51.76;100930.72;10426756;28;20499;-49
2024/01/14 08:40:08;;;;;;;15.93;6.45;;;;;;;17.03;53.11;100931.38;10422665;28;20025;-49
2024/01/14 08:45:08;;;;;;;14.40;7.00;;;;;;;17.14;50.49;100922.97;10411672;28;20469;-49
2024/01/14 08:50:10;;;;;;;11.25;6.18;;;;;;;17.01;52.27;100915.56;10411038;28;20547;-49
2024/01/14 08:55:11;;;;;;;11.35;6.53;;;;;;;16.99;51.55;100914.25;10425443;28;20111;-50
2024/01/14 09:00:12;;;;;;;13.65;6.88;;;;;;;17.00;51.87;100911.31;10437055;28;20016;-50
2024/01/14 09:05:12;;;;;;;12.93;6.57;;;;;;;16.99;51.87;100915.06;10425979;28;20039;-50
2024/01/14 09:10:13;;;;;;;11.93;6.13;;;;;;;16.97;51.72;100914.56;10393897;28;20048;-47
2024/01/14 09:15:13;;;;;;;13.18;5.43;;;;;;;16.91;53.04;100900.38;10409807;28;20268;-52
2024/01/14 09:20:14;;;;;;;10.95;6.22;;;;;;;16.99;51.60;100887.47;10411507;28;20063;-48
2024/01/14 09:25:14;;;;;;;14.68;6.38;;;;;;;16.99;52.22;100880.25;10409427;28;20033;-47
2024/01/14 09:30:15;;;;;;;15.65;7.32;;;;;;;16.98;52.19;100881.31;10417854;28;20287;-48
2024/01/14 09:35:15;;;;;;;22.15;9.15;;;;;;;17.07;50.27;100881.53;10410010;28;20034;-49
2024/01/14 09:40:17;;;;;;;14.65;6.57;;;;;;;17.04;51.36;100893.59;10409411;28;20068;-48
2024/01/14 09:45:17;;;;;;;9.15;6.40;;;;;;;17.07;51.28;100885.00;10408875;28;20036;-47
2024/01/14 09:50:17;;;;;;;11.18;6.30;;;;;;;17.08;50.78;100881.25;10409000;28;20025;-50
2024/01/14 09:55:18;;;;;;;9.53;6.53;;;;;;;17.08;50.65;100883.13;10412009;28;20100;-49
2024/01/14 10:00:21;;;;;;;11.55;6.85;;;;;;;17.05;50.29;100873.78;10408841;28;20279;-49
2024/01/14 10:05:22;;;;;;;10.65;7.03;;;;;;;17.05;51.62;100871.09;10409210;28;20414;-47
2024/01/14 10:10:25;;;;;;;12.73;6.63;;;;;;;17.11;50.86;100874.50;10421698;28;20116;-47
2024/01/14 10:15:26;;;;;;;11.93;6.18;;;;;;;17.03;50.60;100877.78;10450184;28;20025;-48
2024/01/14 10:20:26;;;;;;;12.60;6.72;;;;;;;17.03;50.37;100867.88;10450210;28;20032;-49
2024/01/14 10:25:27;;;;;;;19.02;8.23;;;;;;;17.00;50.30;100860.41;10449731;28;20021;-47
2024/01/14 10:30:28;;;;;;;13.48;7.30;;;;;;;17.02;50.85;100860.13;10449052;28;20037;-47
2024/01/14 10:35:29;;;;;;;25.05;8.68;;;;;;;16.99;51.80;100856.13;10408611;28;20721;-47
2024/01/14 10:40:30;;;;;;;15.52;7.88;;;;;;;16.97;52.35;100849.47;10414903;28;20129;-47
2024/01/14 10:45:30;;;;;;;13.02;6.45;;;;;;;16.86;52.54;100838.84;10416299;28;20029;-47
2024/01/14 10:50:32;;;;;;;24.60;9.68;;;;;;;16.88;53.44;100827.84;10415151;28;20484;-48
2024/01/14 10:55:40;;;;;;;27.58;10.55;;;;;;;17.04;55.02;100821.25;10429435;28;20078;-47
2024/01/14 11:00:42;;;;;;;19.63;10.57;;;;;;;17.06;55.34;100811.06;10429357;28;20025;-48
2024/01/14 11:05:43;;;;;;;16.10;8.60;;;;;;;17.08;55.46;100800.88;10434074;28;20070;-46
2024/01/14 11:10:43;;;;;;;17.17;9.43;;;;;;;17.09;54.62;100788.28;10439367;28;20358;-46
2024/01/14 11:15:55;;;;;;;17.48;8.80;;;;;;;17.12;54.37;100788.50;10450406;28;20032;-47
2024/01/14 11:21:19;;;;;;;16.45;8.18;;;;;;;17.10;55.29;100779.16;10414789;28;20037;-46
2024/01/14 11:26:19;;;;;;;14.88;8.60;;;;;;;17.11;55.11;100770.03;10416978;28;20465;-52
2024/01/14 11:31:20;;;;;;;24.90;9.23;;;;;;;17.04;56.28;100756.97;10423937;28;20025;-46
2024/01/14 11:36:55;;;;;;;20.40;8.80;;;;;;;17.05;56.08;100742.50;10413652;28;20029;-49
2024/01/14 11:41:55;;;;;;;18.70;8.38;;;;;;;17.10;55.63;100737.09;10426189;28;20051;-51
2024/01/14 11:46:55;;;;;;;15.53;8.23;;;;;;;17.15;55.03;100728.19;10451780;28;20032;-50
2024/01/14 11:51:59;;;;;;;17.73;8.37;;;;;;;17.13;55.73;100715.06;10454215;28;20880;-51
2024/01/14 11:57:25;;;;;;;15.32;7.63;;;;;;;17.15;55.91;100707.53;10454085;28;20283;-52
2024/01/14 12:02:26;;;;;;;28.17;9.45;;;;;;;17.06;56.53;100701.25;10453349;28;20029;-50
2024/01/14 12:07:26;;;;;;;16.08;7.68;;;;;;;17.14;56.36;100681.84;10412728;28;20045;-46
2024/01/14 12:12:27;;;;;;;24.17;8.18;;;;;;;17.14;56.67;100683.72;10437009;28;20486;-49
2024/01/14 12:17:27;;;;;;;16.42;7.65;;;;;;;17.05;57.16;100666.69;10433834;28;20025;-54
2024/01/14 12:22:28;;;;;;;18.35;7.45;;;;;;;17.04;57.42;100665.09;10434574;28;20021;-47
2024/01/14 12:27:28;;;;;;;19.17;8.02;;;;;;;17.01;55.95;100653.06;10427275;28;20029;-49
2024/01/14 12:32:32;;;;;;;22.27;8.40;;;;;;;17.06;56.13;100641.50;10436854;28;20020;-47
2024/01/14 12:37:33;;;;;;;20.88;7.78;;;;;;;17.09;56.08;100628.34;10424497;28;20330;-47
2024/01/14 12:42:34;;;;;;;13.55;7.82;;;;;;;17.10;57.55;100621.88;10434995;28;20040;-52
2024/01/14 12:47:34;;;;;;;16.95;7.63;;;;;;;17.08;57.92;100609.88;10441907;28;20035;-47
2024/01/14 12:52:34;;;;;;;19.40;8.97;;;;;;;17.09;57.46;100601.53;10423044;28;20083;-51
2024/01/14 12:57:44;;;;;;;14.10;7.57;;;;;;;17.10;57.89;100594.31;10426169;28;20342;-47
2024/01/14 13:02:44;;;;;;;17.98;7.45;;;;;;;17.05;56.67;100589.81;10429886;28;20286;-51
2024/01/14 13:07:44;;;;;;;15.17;6.37;;;;;;;17.03;57.47;100580.47;10427019;28;20037;-48
2024/01/14 13:12:45;;;;;;;25.10;7.75;;;;;;;17.00;57.25;100571.13;10428733;28;20292;-53
2024/01/14 13:17:46;;;;;;;17.77;8.10;;;;;;;16.98;57.65;100570.63;10420968;28;20037;-45
2024/01/14 13:22:46;;;;;;;18.05;6.72;;;;;;;16.97;57.00;100557.53;10420355;28;20051;-47
2024/01/14 13:27:47;;;;;;;18.60;7.38;;;;;;;16.96;56.69;100556.72;10436978;28;20653;-48
2024/01/14 13:32:47;;;;;;;12.40;7.28;;;;;;;16.97;55.95;100552.16;10429684;28;20537;-47
2024/01/14 13:37:48;;;;;;;19.80;7.07;;;;;;;16.93;56.83;100544.72;10425527;28;20012;-50
2024/01/14 13:42:49;;;;;;;23.13;7.23;;;;;;;16.92;56.69;100532.38;10429276;28;20104;-50
2024/01/14 13:47:50;;;;;;;18.75;8.25;;;;;;;16.93;56.54;100522.50;10425728;28;20330;-48
2024/01/14 13:52:50;;;;;;;11.33;6.23;;;;;;;16.90;55.74;100515.00;10423847;28;20108;-50
2024/01/14 13:57:52;;;;;;;16.23;7.45;;;;;;;16.90;56.49;100512.34;10427315;28;20712;-51
2024/01/14 14:02:52;;;;;;;13.85;6.78;;;;;;;16.89;57.10;100508.06;10422252;28;20059;-52
2024/01/14 14:07:53;;;;;;;24.35;6.40;;;;;;;16.80;57.11;100515.94;10426200;28;20106;-52
2024/01/14 14:12:53;;;;;;;28.17;8.85;;;;;;;16.91;56.19;100500.53;10425264;28;20032;-50
2024/01/14 14:17:54;;;;;;;25.50;9.23;;;;;;;16.92;57.34;100496.75;10431833;28;20029;-54
2024/01/14 14:22:54;;;;;;;21.90;7.90;;;;;;;16.99;57.65;100483.81;10417217;28;20083;-47
2024/01/14 14:27:54;;;;;;;22.67;7.30;;;;;;;17.09;57.40;100478.31;10408318;28;20362;-52
2024/01/14 14:32:54;;;;;;;26.45;7.53;;;;;;;17.08;57.04;100467.91;10417122;28;20358;-50
2024/01/14 14:37:55;;;;;;;23.73;7.60;;;;;;;17.17;57.07;100455.44;10408310;28;20037;-58
2024/01/14 14:42:55;;;;;;;22.33;8.07;;;;;;;17.24;56.42;100453.97;10408744;28;20286;-52
2024/01/14 14:47:55;;;;;;;29.98;9.63;;;;;;;17.32;57.48;100441.00;10408615;28;20295;-54
2024/01/14 14:52:56;;;;;;;25.37;7.93;;;;;;;17.33;57.40;100434.53;10408529;28;20030;-52
2024/01/14 14:57:56;;;;;;;15.83;6.77;;;;;;;17.18;58.45;100427.56;10408105;28;20623;-48
2024/01/14 15:02:56;;;;;;;17.03;7.63;;;;;;;17.11;58.51;100422.56;10418954;28;20282;-55
2024/01/14 15:07:57;;;;;;;16.67;7.90;;;;;;;17.01;57.57;100412.00;10407835;28;20781;-51
2024/01/14 15:12:57;;;;;;;26.38;8.48;;;;;;;16.99;58.71;100410.72;10441941;28;20302;-48
2024/01/14 15:17:58;;;;;;;22.17;8.15;;;;;;;17.04;58.51;100410.63;10449252;28;20029;-48
2024/01/14 15:22:58;;;;;;;17.77;7.47;;;;;;;17.04;58.47;100407.94;10438291;28;20641;-49
2024/01/14 15:27:58;;;;;;;20.37;7.40;;;;;;;17.00;59.40;100393.56;10457258;28;20025;-52
2024/01/14 15:32:59;;;;;;;19.37;8.53;;;;;;;17.01;58.68;100393.25;10435059;28;20284;-49
2024/01/14 15:37:59;;;;;;;23.70;8.73;;;;;;;16.92;58.35;100390.44;10413921;28;20276;-50
2024/01/14 15:43:00;;;;;;;20.30;7.72;;;;;;;16.88;58.29;100389.44;10414334;28;20273;-49
2024/01/14 15:48:02;;;;;;;12.75;7.88;;;;;;;16.93;61.60;100397.41;10425828;28;20429;-48
2024/01/14 15:53:02;;;;;;;23.23;7.70;;;;;;;17.10;60.47;100394.19;10429923;28;20117;-51
2024/01/14 15:58:02;;;;;;;29.77;8.30;;;;;;;17.13;59.67;100393.59;10427982;28;20035;-51
2024/01/14 16:03:03;;;;;;;30.50;8.98;;;;;;;17.13;59.58;100390.13;10429717;28;20025;-49
2024/01/14 16:08:04;;;;;;;15.48;7.93;;;;;;;17.08;59.95;100390.22;10443239;28;20069;-54
2024/01/14 16:13:04;;;;;;;18.90;7.45;;;;;;;17.10;60.21;100377.31;10439808;28;20033;-52
2024/01/14 16:18:05;;;;;;;25.33;7.03;;;;;;;16.98;59.12;100368.94;10425679;28;20029;-53
2024/01/14 16:23:05;;;;;;;114.60;49.97;;;;;;;16.92;60.41;100360.19;10422695;28;20021;-52
2024/01/14 16:28:07;;;;;;;33.73;15.30;;;;;;;16.95;59.18;100348.91;10430206;28;20025;-49
2024/01/14 16:33:08;;;;;;;36.63;13.55;;;;;;;17.03;58.95;100336.72;10431720;28;20280;-48
2024/01/14 16:38:08;;;;;;;22.42;11.88;;;;;;;17.14;57.87;100338.13;10412152;28;20033;-47
2024/01/14 16:43:08;;;;;;;20.10;12.07;;;;;;;17.24;57.33;100332.59;10409760;28;20017;-50
2024/01/14 16:48:09;;;;;;;20.93;12.47;;;;;;;17.31;57.65;100326.84;10411599;28;20279;-50
2024/01/14 16:53:09;;;;;;;26.40;12.40;;;;;;;17.39;57.03;100313.53;10426369;28;20940;-55
2024/01/14 16:58:09;;;;;;;16.20;10.55;;;;;;;17.46;55.38;100318.53;10430107;28;20279;-49
2024/01/14 17:03:10;;;;;;;27.87;11.30;;;;;;;17.51;55.74;100310.38;10420951;28;20645;-48
2024/01/14 17:08:10;;;;;;;29.83;11.13;;;;;;;17.48;57.01;100308.28;10427731;28;20295;-48
2024/01/14 17:13:10;;;;;;;26.33;10.93;;;;;;;17.47;57.34;100306.72;10426544;28;20279;-49
2024/01/14 17:18:11;;;;;;;24.77;10.47;;;;;;;17.37;57.09;100305.00;10426631;28;20091;-49
2024/01/14 17:23:11;;;;;;;18.70;9.77;;;;;;;17.31;56.99;100290.13;10440036;28;20797;-48
2024/01/14 17:28:12;;;;;;;31.35;10.38;;;;;;;17.35;56.80;100296.47;10452116;28;20280;-53
2024/01/14 17:33:12;;;;;;;19.08;8.50;;;;;;;17.30;57.78;100293.91;10429652;28;20025;-52
2024/01/14 17:38:13;;;;;;;18.03;8.10;;;;;;;17.27;57.77;100283.75;10410599;28;20032;-53
2024/01/14 17:43:13;;;;;;;25.38;9.07;;;;;;;17.11;57.00;100283.25;10409822;28;20616;-48
2024/01/14 17:48:13;;;;;;;27.23;9.43;;;;;;;17.06;56.66;100278.00;10409448;28;20044;-51
2024/01/14 17:53:14;;;;;;;19.67;8.17;;;;;;;17.09;57.58;100276.63;10409732;28;21049;-49
2024/01/14 17:58:14;;;;;;;20.73;8.83;;;;;;;17.08;57.41;100272.34;10409767;28;20340;-50
2024/01/14 18:03:15;;;;;;;16.27;8.52;;;;;;;17.08;56.34;100267.78;10409210;28;20280;-51
2024/01/14 18:08:15;;;;;;;19.03;8.20;;;;;;;17.07;57.13;100255.50;10409349;28;20665;-54
2024/01/14 18:13:16;;;;;;;15.70;8.50;;;;;;;17.04;57.76;100261.41;10445473;28;20380;-53
2024/01/14 18:18:16;;;;;;;18.17;8.18;;;;;;;17.02;57.16;100236.81;10450158;28;20659;-52
2024/01/14 18:23:16;;;;;;;17.38;8.75;;;;;;;16.99;57.10;100233.94;10450217;28;20539;-51
2024/01/14 18:28:17;;;;;;;15.20;6.70;;;;;;;16.97;57.60;100236.91;10438541;28;20029;-51
2024/01/14 18:33:18;;;;;;;12.38;6.95;;;;;;;17.07;56.37;100231.38;10428750;28;20790;-51
2024/01/14 18:38:18;;;;;;;13.97;7.20;;;;;;;17.12;57.57;100238.50;10420391;28;20009;-50
2024/01/14 18:43:19;;;;;;;13.57;7.47;;;;;;;17.09;57.11;100220.38;10425161;28;20264;-51
2024/01/14 18:48:19;;;;;;;11.27;6.43;;;;;;;17.04;57.40;100226.59;10424193;28;20365;-50
2024/01/14 18:53:20;;;;;;;15.55;6.78;;;;;;;16.99;58.05;100229.38;10420966;28;20584;-49
2024/01/14 18:58:22;;;;;;;14.90;6.97;;;;;;;17.07;56.88;100222.56;10409969;28;20473;-50
2024/01/14 19:03:23;;;;;;;19.60;6.47;;;;;;;17.01;56.83;100213.00;10416020;28;20724;-51
2024/01/14 19:08:23;;;;;;;14.97;6.37;;;;;;;16.95;56.28;100207.75;10400635;28;20041;-52
2024/01/14 19:13:25;;;;;;;13.83;5.43;;;;;;;16.92;56.88;100202.97;10418077;28;20292;-48
2024/01/14 19:18:25;;;;;;;13.32;6.93;;;;;;;16.91;57.09;100209.44;10433173;28;20271;-48
2024/01/14 19:23:25;;;;;;;10.80;5.80;;;;;;;16.91;57.14;100217.47;10415759;28;20468;-48
2024/01/14 19:28:26;;;;;;;11.43;5.63;;;;;;;16.91;57.44;100201.38;10417892;28;20276;-46
2024/01/14 19:33:27;;;;;;;17.23;6.78;;;;;;;16.91;57.30;100195.25;10435177;28;20735;-48
2024/01/14 19:38:27;;;;;;;9.07;5.40;;;;;;;16.93;57.08;100198.44;10430910;28;20021;-49
2024/01/14 19:43:28;;;;;;;10.20;5.28;;;;;;;16.96;55.91;100187.13;10429991;28;20272;-48
2024/01/14 19:48:29;;;;;;;10.57;5.60;;;;;;;16.98;57.69;100178.78;10429557;28;20104;-52
2024/01/14 19:53:29;;;;;;;10.70;4.97;;;;;;;17.04;55.99;100182.94;10430807;28;20021;-51
2024/01/14 19:58:30;;;;;;;11.45;4.82;;;;;;;17.05;55.42;100173.81;10432928;28;20024;-50
2024/01/14 20:03:30;;;;;;;7.23;5.47;;;;;;;17.08;56.10;100166.00;10432891;28;20017;-49
2024/01/14 20:08:30;;;;;;;9.17;4.80;;;;;;;17.10;56.46;100163.03;10428154;28;20771;-52
2024/01/14 20:13:32;;;;;;;8.53;4.03;;;;;;;17.13;55.71;100154.38;10428642;28;20790;-50
2024/01/14 20:18:33;;;;;;;10.48;4.82;;;;;;;17.08;55.29;100143.78;10427300;28;20283;-50
2024/01/14 20:23:33;;;;;;;7.30;4.05;;;;;;;17.04;55.99;100145.44;10418918;28;20094;-52
2024/01/14 20:28:33;;;;;;;8.43;3.70;;;;;;;17.00;55.66;100134.53;10413381;28;20033;-49
2024/01/14 20:33:34;;;;;;;5.63;3.80;;;;;;;16.97;56.17;100140.50;10431388;28;20299;-50
2024/01/14 20:38:34;;;;;;;6.37;3.83;;;;;;;16.98;55.37;100128.69;10412978;28;20276;-53
2024/01/14 20:43:34;;;;;;;7.67;3.50;;;;;;;16.99;54.95;100134.84;10431805;28;20808;-48
2024/01/14 20:48:35;;;;;;;7.00;3.87;;;;;;;16.99;55.92;100127.59;10453989;28;20283;-50
2024/01/14 20:53:36;;;;;;;6.93;3.10;;;;;;;17.01;54.00;100129.97;10453875;28;20370;-48
2024/01/14 20:58:36;;;;;;;7.63;2.88;;;;;;;16.99;55.71;100130.28;10453393;28;20032;-48
2024/01/14 21:03:38;;;;;;;4.87;2.97;;;;;;;16.98;54.36;100126.03;10452624;28;20043;-49
2024/01/14 21:08:38;;;;;;;8.30;3.92;;;;;;;17.01;54.57;100125.41;10448446;28;20307;-47
2024/01/14 21:13:39;;;;;;;4.55;2.55;;;;;;;17.00;54.09;100125.72;10450721;28;20025;-48
2024/01/14 21:18:39;;;;;;;5.93;3.03;;;;;;;17.04;54.46;100122.13;10452556;28;20025;-48
2024/01/14 21:23:40;;;;;;;3.70;2.67;;;;;;;17.04;53.81;100127.50;10451904;28;20024;-53
2024/01/14 21:28:40;;;;;;;4.88;2.90;;;;;;;17.04;54.54;100126.69;10452235;28;20029;-51
2024/01/14 21:33:41;;;;;;;3.78;2.70;;;;;;;17.04;53.43;100124.81;10424417;28;20040;-52
2024/01/14 21:38:41;;;;;;;3.83;2.35;;;;;;;17.05;53.34;100123.75;10410960;28;20053;-49
2024/01/14 21:43:41;;;;;;;4.97;2.53;;;;;;;17.04;54.73;100111.41;10410025;28;20017;-50
2024/01/14 21:48:42;;;;;;;3.20;2.30;;;;;;;17.12;53.86;100109.94;10410508;28;20756;-51
2024/01/14 21:53:42;;;;;;;5.43;2.50;;;;;;;17.08;53.13;100117.78;10409710;28;20284;-51
2024/01/14 21:58:42;;;;;;;2.65;1.80;;;;;;;17.04;54.17;100124.81;10410049;28;20795;-50
2024/01/14 22:03:43;;;;;;;2.93;2.00;;;;;;;17.03;54.44;100130.47;10408190;28;20029;-50
2024/01/14 22:08:43;;;;;;;3.58;2.53;;;;;;;17.02;54.56;100123.53;10409556;28;20305;-52
2024/01/14 22:13:43;;;;;;;3.43;1.70;;;;;;;17.02;54.03;100129.69;10449184;28;20028;-52
2024/01/14 22:18:44;;;;;;;4.10;2.03;;;;;;;17.05;53.18;100122.94;10450606;28;20286;-51
2024/01/14 22:23:44;;;;;;;2.93;1.97;;;;;;;17.08;54.09;100111.63;10450153;28;20288;-51
2024/01/14 22:28:44;;;;;;;3.00;1.97;;;;;;;17.11;53.42;100124.41;10450385;28;20673;-52
2024/01/14 22:33:45;;;;;;;2.20;1.47;;;;;;;17.10;53.27;100120.16;10422381;28;20299;-47
2024/01/14 22:38:45;;;;;;;3.13;1.70;;;;;;;17.09;54.14;100119.38;10409018;28;20419;-52
2024/01/14 22:43:46;;;;;;;3.35;1.42;;;;;;;17.09;54.01;100113.22;10407474;28;20397;-52
2024/01/14 22:48:46;;;;;;;2.57;1.60;;;;;;;17.04;53.58;100114.09;10408881;28;20104;-48
2024/01/14 22:53:47;;;;;;;2.70;1.70;;;;;;;17.08;53.01;100100.91;10408603;28;20322;-50